sensor_id;sensor_type;location;lat;lon;timestamp;P1;durP1;ratioP1;P2;durP2;ratioP2
23702;SDS011;12030;50.376;8.762;2023-09-12T00:00:04;23.23;;;21.57;;
23702;SDS011;12030;50.376;8.762;2023-09-12T00:02:30;20.33;;;18.60;;
23702;SDS011;12030;50.376;8.762;2023-09-12T00:04:56;21.13;;;19.60;;
23702;SDS011;12030;50.376;8.762;2023-09-12T00:07:21;21.73;;;19.73;;
23702;SDS011;12030;50.376;8.762;2023-09-12T00:09:47;24.90;;;22.83;;
23702;SDS011;12030;50.376;8.762;2023-09-12T00:12:16;22.60;;;20.80;;
23702;SDS011;12030;50.376;8.762;2023-09-12T00:14:41;22.53;;;20.73;;
23702;SDS011;12030;50.376;8.762;2023-09-12T00:17:07;28.40;;;26.27;;
23702;SDS011;12030;50.376;8.762;2023-09-12T00:19:33;23.53;;;21.10;;
23702;SDS011;12030;50.376;8.762;2023-09-12T00:22:00;26.30;;;24.07;;
23702;SDS011;12030;50.376;8.762;2023-09-12T00:24:25;27.77;;;25.53;;
23702;SDS011;12030;50.376;8.762;2023-09-12T00:26:51;22.93;;;21.03;;
23702;SDS011;12030;50.376;8.762;2023-09-12T00:29:16;22.27;;;20.27;;
23702;SDS011;12030;50.376;8.762;2023-09-12T00:31:42;22.67;;;20.77;;
23702;SDS011;12030;50.376;8.762;2023-09-12T00:34:07;27.07;;;24.97;;
23702;SDS011;12030;50.376;8.762;2023-09-12T00:36:33;23.83;;;21.83;;
23702;SDS011;12030;50.376;8.762;2023-09-12T00:38:58;27.07;;;24.73;;
23702;SDS011;12030;50.376;8.762;2023-09-12T00:41:24;25.83;;;23.57;;
23702;SDS011;12030;50.376;8.762;2023-09-12T00:43:49;24.00;;;22.13;;
23702;SDS011;12030;50.376;8.762;2023-09-12T00:46:19;24.80;;;22.90;;
23702;SDS011;12030;50.376;8.762;2023-09-12T00:48:46;21.30;;;19.17;;
23702;SDS011;12030;50.376;8.762;2023-09-12T00:51:14;22.43;;;20.50;;
23702;SDS011;12030;50.376;8.762;2023-09-12T00:53:41;24.63;;;22.07;;
23702;SDS011;12030;50.376;8.762;2023-09-12T00:56:08;22.43;;;20.77;;
23702;SDS011;12030;50.376;8.762;2023-09-12T00:58:34;20.10;;;18.13;;
23702;SDS011;12030;50.376;8.762;2023-09-12T01:00:59;22.50;;;20.50;;
23702;SDS011;12030;50.376;8.762;2023-09-12T01:03:25;19.67;;;17.87;;
23702;SDS011;12030;50.376;8.762;2023-09-12T01:05:52;23.40;;;21.33;;
23702;SDS011;12030;50.376;8.762;2023-09-12T01:08:18;23.77;;;21.77;;
23702;SDS011;12030;50.376;8.762;2023-09-12T01:10:44;25.10;;;22.93;;
23702;SDS011;12030;50.376;8.762;2023-09-12T01:13:15;23.73;;;21.37;;
23702;SDS011;12030;50.376;8.762;2023-09-12T01:15:42;29.87;;;27.67;;
23702;SDS011;12030;50.376;8.762;2023-09-12T01:18:08;27.63;;;25.63;;
23702;SDS011;12030;50.376;8.762;2023-09-12T01:20:34;23.20;;;20.97;;
23702;SDS011;12030;50.376;8.762;2023-09-12T01:28:25;22.07;;;20.10;;
23702;SDS011;12030;50.376;8.762;2023-09-12T01:30:56;21.27;;;19.30;;
23702;SDS011;12030;50.376;8.762;2023-09-12T01:33:24;24.60;;;22.53;;
23702;SDS011;12030;50.376;8.762;2023-09-12T01:35:50;25.67;;;23.63;;
23702;SDS011;12030;50.376;8.762;2023-09-12T01:38:16;23.03;;;20.90;;
23702;SDS011;12030;50.376;8.762;2023-09-12T01:40:51;22.40;;;20.37;;
23702;SDS011;12030;50.376;8.762;2023-09-12T01:43:18;24.17;;;22.17;;
23702;SDS011;12030;50.376;8.762;2023-09-12T01:45:45;27.83;;;25.30;;
23702;SDS011;12030;50.376;8.762;2023-09-12T01:48:19;24.73;;;22.93;;
23702;SDS011;12030;50.376;8.762;2023-09-12T01:50:47;23.63;;;21.67;;
23702;SDS011;12030;50.376;8.762;2023-09-12T01:53:14;21.87;;;20.03;;
23702;SDS011;12030;50.376;8.762;2023-09-12T01:55:43;26.73;;;24.07;;
23702;SDS011;12030;50.376;8.762;2023-09-12T01:58:10;26.53;;;24.63;;
23702;SDS011;12030;50.376;8.762;2023-09-12T02:00:37;26.33;;;23.87;;
23702;SDS011;12030;50.376;8.762;2023-09-12T02:03:04;23.83;;;21.63;;
23702;SDS011;12030;50.376;8.762;2023-09-12T02:05:30;23.47;;;21.33;;
23702;SDS011;12030;50.376;8.762;2023-09-12T02:07:56;23.37;;;21.23;;
23702;SDS011;12030;50.376;8.762;2023-09-12T02:10:21;23.40;;;21.47;;
23702;SDS011;12030;50.376;8.762;2023-09-12T02:12:47;26.60;;;24.47;;
23702;SDS011;12030;50.376;8.762;2023-09-12T02:15:12;25.13;;;22.77;;
23702;SDS011;12030;50.376;8.762;2023-09-12T02:17:38;24.47;;;22.50;;
23702;SDS011;12030;50.376;8.762;2023-09-12T02:20:04;25.37;;;23.13;;
23702;SDS011;12030;50.376;8.762;2023-09-12T02:22:31;23.80;;;21.77;;
23702;SDS011;12030;50.376;8.762;2023-09-12T02:24:57;24.53;;;22.33;;
23702;SDS011;12030;50.376;8.762;2023-09-12T02:27:23;25.23;;;22.97;;
23702;SDS011;12030;50.376;8.762;2023-09-12T02:29:48;26.03;;;23.77;;
23702;SDS011;12030;50.376;8.762;2023-09-12T02:32:14;26.90;;;24.50;;
23702;SDS011;12030;50.376;8.762;2023-09-12T02:34:39;24.03;;;21.87;;
23702;SDS011;12030;50.376;8.762;2023-09-12T02:37:05;24.73;;;22.63;;
23702;SDS011;12030;50.376;8.762;2023-09-12T02:39:30;23.20;;;21.30;;
23702;SDS011;12030;50.376;8.762;2023-09-12T02:41:56;23.60;;;21.57;;
23702;SDS011;12030;50.376;8.762;2023-09-12T02:44:21;21.47;;;19.23;;
23702;SDS011;12030;50.376;8.762;2023-09-12T02:46:47;22.97;;;20.63;;
23702;SDS011;12030;50.376;8.762;2023-09-12T02:49:13;20.30;;;18.17;;
23702;SDS011;12030;50.376;8.762;2023-09-12T02:51:39;26.43;;;24.07;;
23702;SDS011;12030;50.376;8.762;2023-09-12T02:54:05;23.80;;;21.73;;
23702;SDS011;12030;50.376;8.762;2023-09-12T02:56:30;27.00;;;24.73;;
23702;SDS011;12030;50.376;8.762;2023-09-12T02:58:56;20.63;;;18.83;;
23702;SDS011;12030;50.376;8.762;2023-09-12T03:01:22;24.57;;;22.67;;
23702;SDS011;12030;50.376;8.762;2023-09-12T03:03:51;20.53;;;19.13;;
23702;SDS011;12030;50.376;8.762;2023-09-12T03:06:16;20.63;;;18.93;;
23702;SDS011;12030;50.376;8.762;2023-09-12T03:08:45;22.73;;;20.70;;
23702;SDS011;12030;50.376;8.762;2023-09-12T03:11:11;21.40;;;19.70;;
23702;SDS011;12030;50.376;8.762;2023-09-12T03:13:37;22.17;;;20.27;;
23702;SDS011;12030;50.376;8.762;2023-09-12T03:16:04;26.17;;;24.17;;
23702;SDS011;12030;50.376;8.762;2023-09-12T03:18:30;19.17;;;17.53;;
23702;SDS011;12030;50.376;8.762;2023-09-12T03:20:55;23.53;;;21.53;;
23702;SDS011;12030;50.376;8.762;2023-09-12T03:23:21;23.67;;;21.80;;
23702;SDS011;12030;50.376;8.762;2023-09-12T03:25:47;24.30;;;22.30;;
23702;SDS011;12030;50.376;8.762;2023-09-12T03:28:12;23.47;;;21.57;;
23702;SDS011;12030;50.376;8.762;2023-09-12T03:30:38;23.10;;;21.00;;
23702;SDS011;12030;50.376;8.762;2023-09-12T03:33:04;22.47;;;20.60;;
23702;SDS011;12030;50.376;8.762;2023-09-12T03:35:31;20.23;;;18.57;;
23702;SDS011;12030;50.376;8.762;2023-09-12T03:37:57;23.97;;;21.70;;
23702;SDS011;12030;50.376;8.762;2023-09-12T03:40:23;20.30;;;18.60;;
23702;SDS011;12030;50.376;8.762;2023-09-12T03:42:49;23.13;;;21.33;;
23702;SDS011;12030;50.376;8.762;2023-09-12T03:45:14;22.83;;;20.70;;
23702;SDS011;12030;50.376;8.762;2023-09-12T03:47:40;25.00;;;23.17;;
23702;SDS011;12030;50.376;8.762;2023-09-12T03:50:05;23.93;;;21.77;;
23702;SDS011;12030;50.376;8.762;2023-09-12T03:52:31;22.37;;;20.57;;
23702;SDS011;12030;50.376;8.762;2023-09-12T03:54:57;27.07;;;24.93;;
23702;SDS011;12030;50.376;8.762;2023-09-12T03:57:22;25.13;;;23.17;;
23702;SDS011;12030;50.376;8.762;2023-09-12T03:59:50;24.03;;;21.80;;
23702;SDS011;12030;50.376;8.762;2023-09-12T04:02:16;27.30;;;25.03;;
23702;SDS011;12030;50.376;8.762;2023-09-12T04:04:41;27.50;;;25.17;;
23702;SDS011;12030;50.376;8.762;2023-09-12T04:07:07;26.60;;;24.70;;
23702;SDS011;12030;50.376;8.762;2023-09-12T04:09:33;27.37;;;24.57;;
23702;SDS011;12030;50.376;8.762;2023-09-12T04:11:58;28.07;;;25.83;;
23702;SDS011;12030;50.376;8.762;2023-09-12T04:14:24;25.57;;;23.60;;
23702;SDS011;12030;50.376;8.762;2023-09-12T04:16:49;28.90;;;26.23;;
23702;SDS011;12030;50.376;8.762;2023-09-12T04:19:15;28.20;;;25.60;;
23702;SDS011;12030;50.376;8.762;2023-09-12T04:21:40;30.40;;;27.73;;
23702;SDS011;12030;50.376;8.762;2023-09-12T04:24:06;28.30;;;26.07;;
23702;SDS011;12030;50.376;8.762;2023-09-12T04:26:32;28.50;;;26.00;;
23702;SDS011;12030;50.376;8.762;2023-09-12T04:28:58;31.43;;;28.97;;
23702;SDS011;12030;50.376;8.762;2023-09-12T04:31:23;33.67;;;31.17;;
23702;SDS011;12030;50.376;8.762;2023-09-12T04:33:53;30.73;;;28.10;;
23702;SDS011;12030;50.376;8.762;2023-09-12T04:36:19;29.10;;;26.77;;
23702;SDS011;12030;50.376;8.762;2023-09-12T04:38:44;31.23;;;28.63;;
23702;SDS011;12030;50.376;8.762;2023-09-12T04:41:11;30.67;;;28.20;;
23702;SDS011;12030;50.376;8.762;2023-09-12T04:43:40;27.50;;;25.03;;
23702;SDS011;12030;50.376;8.762;2023-09-12T04:46:06;26.57;;;24.20;;
23702;SDS011;12030;50.376;8.762;2023-09-12T04:48:32;25.00;;;22.67;;
23702;SDS011;12030;50.376;8.762;2023-09-12T04:50:57;26.93;;;23.93;;
23702;SDS011;12030;50.376;8.762;2023-09-12T04:53:23;24.60;;;22.37;;
23702;SDS011;12030;50.376;8.762;2023-09-12T04:55:49;23.00;;;20.53;;
23702;SDS011;12030;50.376;8.762;2023-09-12T04:58:18;24.53;;;22.63;;
23702;SDS011;12030;50.376;8.762;2023-09-12T05:00:44;22.63;;;20.37;;
23702;SDS011;12030;50.376;8.762;2023-09-12T05:03:10;22.30;;;20.27;;
23702;SDS011;12030;50.376;8.762;2023-09-12T05:05:35;25.63;;;20.77;;
23702;SDS011;12030;50.376;8.762;2023-09-12T05:08:01;28.20;;;22.27;;
23702;SDS011;12030;50.376;8.762;2023-09-12T05:10:27;23.47;;;21.53;;
23702;SDS011;12030;50.376;8.762;2023-09-12T05:12:52;24.37;;;22.07;;
23702;SDS011;12030;50.376;8.762;2023-09-12T05:15:18;23.63;;;21.77;;
23702;SDS011;12030;50.376;8.762;2023-09-12T05:17:44;22.90;;;20.70;;
23702;SDS011;12030;50.376;8.762;2023-09-12T05:20:09;23.77;;;21.53;;
23702;SDS011;12030;50.376;8.762;2023-09-12T05:22:35;24.27;;;22.13;;
23702;SDS011;12030;50.376;8.762;2023-09-12T05:25:00;25.57;;;22.87;;
23702;SDS011;12030;50.376;8.762;2023-09-12T05:27:26;22.43;;;20.33;;
23702;SDS011;12030;50.376;8.762;2023-09-12T05:29:51;22.00;;;19.93;;
23702;SDS011;12030;50.376;8.762;2023-09-12T05:32:17;25.43;;;22.87;;
23702;SDS011;12030;50.376;8.762;2023-09-12T05:34:42;26.20;;;23.73;;
23702;SDS011;12030;50.376;8.762;2023-09-12T05:37:10;24.67;;;22.50;;
23702;SDS011;12030;50.376;8.762;2023-09-12T05:39:35;23.30;;;21.17;;
23702;SDS011;12030;50.376;8.762;2023-09-12T05:42:01;26.70;;;24.33;;
23702;SDS011;12030;50.376;8.762;2023-09-12T05:44:26;25.57;;;22.83;;
23702;SDS011;12030;50.376;8.762;2023-09-12T05:46:52;24.73;;;22.60;;
23702;SDS011;12030;50.376;8.762;2023-09-12T05:49:18;26.03;;;23.73;;
23702;SDS011;12030;50.376;8.762;2023-09-12T05:51:44;25.70;;;23.10;;
23702;SDS011;12030;50.376;8.762;2023-09-12T05:54:10;27.13;;;24.40;;
23702;SDS011;12030;50.376;8.762;2023-09-12T05:56:36;28.23;;;25.73;;
23702;SDS011;12030;50.376;8.762;2023-09-12T05:59:02;28.00;;;25.43;;
23702;SDS011;12030;50.376;8.762;2023-09-12T06:01:27;23.63;;;19.87;;
23702;SDS011;12030;50.376;8.762;2023-09-12T06:03:53;24.00;;;21.70;;
23702;SDS011;12030;50.376;8.762;2023-09-12T06:06:19;27.43;;;24.87;;
23702;SDS011;12030;50.376;8.762;2023-09-12T06:08:44;27.50;;;24.83;;
23702;SDS011;12030;50.376;8.762;2023-09-12T06:11:10;24.93;;;22.50;;
23702;SDS011;12030;50.376;8.762;2023-09-12T06:13:35;24.00;;;21.60;;
23702;SDS011;12030;50.376;8.762;2023-09-12T06:16:02;26.57;;;23.80;;
23702;SDS011;12030;50.376;8.762;2023-09-12T06:18:30;25.30;;;22.77;;
23702;SDS011;12030;50.376;8.762;2023-09-12T06:20:57;25.63;;;23.00;;
23702;SDS011;12030;50.376;8.762;2023-09-12T06:23:31;25.33;;;22.87;;
23702;SDS011;12030;50.376;8.762;2023-09-12T06:25:56;25.50;;;22.70;;
23702;SDS011;12030;50.376;8.762;2023-09-12T06:28:25;27.60;;;23.80;;
23702;SDS011;12030;50.376;8.762;2023-09-12T06:30:51;28.17;;;25.27;;
23702;SDS011;12030;50.376;8.762;2023-09-12T06:33:17;24.03;;;20.57;;
23702;SDS011;12030;50.376;8.762;2023-09-12T06:35:43;28.97;;;22.30;;
23702;SDS011;12030;50.376;8.762;2023-09-12T06:38:08;25.47;;;22.97;;
23702;SDS011;12030;50.376;8.762;2023-09-12T06:40:34;29.63;;;21.67;;
23702;SDS011;12030;50.376;8.762;2023-09-12T06:42:59;27.33;;;23.40;;
23702;SDS011;12030;50.376;8.762;2023-09-12T06:45:25;29.20;;;26.30;;
23702;SDS011;12030;50.376;8.762;2023-09-12T06:47:50;25.30;;;21.97;;
23702;SDS011;12030;50.376;8.762;2023-09-12T06:50:16;24.97;;;21.73;;
23702;SDS011;12030;50.376;8.762;2023-09-12T06:52:41;26.67;;;23.80;;
23702;SDS011;12030;50.376;8.762;2023-09-12T06:55:07;26.70;;;24.07;;
23702;SDS011;12030;50.376;8.762;2023-09-12T06:57:32;25.27;;;22.33;;
23702;SDS011;12030;50.376;8.762;2023-09-12T06:59:58;27.77;;;25.03;;
23702;SDS011;12030;50.376;8.762;2023-09-12T07:02:24;25.70;;;23.57;;
23702;SDS011;12030;50.376;8.762;2023-09-12T07:04:49;25.27;;;22.83;;
23702;SDS011;12030;50.376;8.762;2023-09-12T07:07:14;24.50;;;22.13;;
23702;SDS011;12030;50.376;8.762;2023-09-12T07:09:40;31.30;;;28.37;;
23702;SDS011;12030;50.376;8.762;2023-09-12T07:12:06;23.97;;;21.83;;
23702;SDS011;12030;50.376;8.762;2023-09-12T07:14:31;25.60;;;23.40;;
23702;SDS011;12030;50.376;8.762;2023-09-12T07:16:57;29.50;;;26.70;;
23702;SDS011;12030;50.376;8.762;2023-09-12T07:19:22;27.50;;;22.73;;
23702;SDS011;12030;50.376;8.762;2023-09-12T07:21:49;28.90;;;25.93;;
23702;SDS011;12030;50.376;8.762;2023-09-12T07:24:14;24.47;;;21.87;;
23702;SDS011;12030;50.376;8.762;2023-09-12T07:26:40;28.63;;;25.73;;
23702;SDS011;12030;50.376;8.762;2023-09-12T07:29:05;27.50;;;25.03;;
23702;SDS011;12030;50.376;8.762;2023-09-12T07:31:31;26.20;;;23.60;;
23702;SDS011;12030;50.376;8.762;2023-09-12T07:33:56;27.60;;;24.93;;
23702;SDS011;12030;50.376;8.762;2023-09-12T07:36:22;25.20;;;23.10;;
23702;SDS011;12030;50.376;8.762;2023-09-12T07:38:47;26.13;;;23.90;;
23702;SDS011;12030;50.376;8.762;2023-09-12T07:41:13;26.97;;;24.47;;
23702;SDS011;12030;50.376;8.762;2023-09-12T07:43:39;26.43;;;23.87;;
23702;SDS011;12030;50.376;8.762;2023-09-12T07:46:05;25.00;;;22.60;;
23702;SDS011;12030;50.376;8.762;2023-09-12T07:48:30;24.53;;;22.20;;
23702;SDS011;12030;50.376;8.762;2023-09-12T07:50:57;26.23;;;24.03;;
23702;SDS011;12030;50.376;8.762;2023-09-12T07:53:22;26.63;;;24.07;;
23702;SDS011;12030;50.376;8.762;2023-09-12T07:55:48;25.27;;;22.77;;
23702;SDS011;12030;50.376;8.762;2023-09-12T07:58:17;25.20;;;23.10;;
23702;SDS011;12030;50.376;8.762;2023-09-12T08:00:46;26.30;;;24.10;;
23702;SDS011;12030;50.376;8.762;2023-09-12T08:03:12;23.10;;;21.10;;
23702;SDS011;12030;50.376;8.762;2023-09-12T08:05:39;22.80;;;20.53;;
23702;SDS011;12030;50.376;8.762;2023-09-12T08:08:04;22.73;;;20.50;;
23702;SDS011;12030;50.376;8.762;2023-09-12T08:10:30;26.27;;;21.90;;
23702;SDS011;12030;50.376;8.762;2023-09-12T08:12:55;23.17;;;21.23;;
23702;SDS011;12030;50.376;8.762;2023-09-12T08:15:21;20.43;;;18.83;;
23702;SDS011;12030;50.376;8.762;2023-09-12T08:17:46;23.53;;;21.67;;
23702;SDS011;12030;50.376;8.762;2023-09-12T08:20:16;24.13;;;21.93;;
23702;SDS011;12030;50.376;8.762;2023-09-12T08:22:42;24.03;;;22.43;;
23702;SDS011;12030;50.376;8.762;2023-09-12T08:25:08;25.67;;;23.07;;
23702;SDS011;12030;50.376;8.762;2023-09-12T08:27:35;25.47;;;22.97;;
23702;SDS011;12030;50.376;8.762;2023-09-12T08:30:01;22.63;;;20.50;;
23702;SDS011;12030;50.376;8.762;2023-09-12T08:32:27;24.50;;;22.27;;
23702;SDS011;12030;50.376;8.762;2023-09-12T08:34:52;23.33;;;20.83;;
23702;SDS011;12030;50.376;8.762;2023-09-12T08:37:18;21.03;;;19.13;;
23702;SDS011;12030;50.376;8.762;2023-09-12T08:39:44;21.77;;;19.83;;
23702;SDS011;12030;50.376;8.762;2023-09-12T08:42:13;23.67;;;21.87;;
23702;SDS011;12030;50.376;8.762;2023-09-12T08:44:41;24.77;;;22.47;;
23702;SDS011;12030;50.376;8.762;2023-09-12T08:47:08;20.87;;;19.10;;
23702;SDS011;12030;50.376;8.762;2023-09-12T08:49:37;20.67;;;18.27;;
23702;SDS011;12030;50.376;8.762;2023-09-12T08:52:06;22.90;;;20.23;;
23702;SDS011;12030;50.376;8.762;2023-09-12T08:54:31;19.37;;;17.57;;
23702;SDS011;12030;50.376;8.762;2023-09-12T08:56:57;18.63;;;16.80;;
23702;SDS011;12030;50.376;8.762;2023-09-12T08:59:26;19.67;;;17.87;;
23702;SDS011;12030;50.376;8.762;2023-09-12T09:01:52;19.20;;;17.33;;
23702;SDS011;12030;50.376;8.762;2023-09-12T09:04:19;20.70;;;19.07;;
23702;SDS011;12030;50.376;8.762;2023-09-12T09:06:45;24.83;;;22.80;;
23702;SDS011;12030;50.376;8.762;2023-09-12T09:09:11;23.00;;;20.73;;
23702;SDS011;12030;50.376;8.762;2023-09-12T09:11:37;20.60;;;18.90;;
23702;SDS011;12030;50.376;8.762;2023-09-12T09:14:03;24.03;;;21.83;;
23702;SDS011;12030;50.376;8.762;2023-09-12T09:16:28;25.33;;;23.13;;
23702;SDS011;12030;50.376;8.762;2023-09-12T09:19:02;24.43;;;22.03;;
23702;SDS011;12030;50.376;8.762;2023-09-12T09:21:34;21.53;;;19.63;;
23702;SDS011;12030;50.376;8.762;2023-09-12T09:24:06;23.60;;;21.53;;
23702;SDS011;12030;50.376;8.762;2023-09-12T09:26:51;22.73;;;20.97;;
23702;SDS011;12030;50.376;8.762;2023-09-12T09:29:23;24.07;;;22.20;;
23702;SDS011;12030;50.376;8.762;2023-09-12T09:31:50;24.37;;;22.60;;
23702;SDS011;12030;50.376;8.762;2023-09-12T09:34:17;28.80;;;26.37;;
23702;SDS011;12030;50.376;8.762;2023-09-12T09:36:44;27.00;;;24.93;;
23702;SDS011;12030;50.376;8.762;2023-09-12T09:39:13;26.57;;;24.13;;
23702;SDS011;12030;50.376;8.762;2023-09-12T09:41:39;22.77;;;20.77;;
23702;SDS011;12030;50.376;8.762;2023-09-12T09:44:05;29.27;;;26.87;;
23702;SDS011;12030;50.376;8.762;2023-09-12T09:46:33;22.97;;;21.27;;
23702;SDS011;12030;50.376;8.762;2023-09-12T09:48:59;24.53;;;21.93;;
23702;SDS011;12030;50.376;8.762;2023-09-12T09:51:26;25.47;;;23.47;;
23702;SDS011;12030;50.376;8.762;2023-09-12T09:53:52;25.07;;;22.97;;
23702;SDS011;12030;50.376;8.762;2023-09-12T09:56:22;24.90;;;22.97;;
23702;SDS011;12030;50.376;8.762;2023-09-12T09:58:50;24.87;;;22.97;;
23702;SDS011;12030;50.376;8.762;2023-09-12T10:01:18;22.30;;;20.43;;
23702;SDS011;12030;50.376;8.762;2023-09-12T10:03:49;22.57;;;20.50;;
23702;SDS011;12030;50.376;8.762;2023-09-12T10:06:16;21.63;;;19.73;;
23702;SDS011;12030;50.376;8.762;2023-09-12T10:08:50;23.83;;;21.60;;
23702;SDS011;12030;50.376;8.762;2023-09-12T10:11:16;22.57;;;20.77;;
23702;SDS011;12030;50.376;8.762;2023-09-12T10:13:47;22.17;;;20.20;;
23702;SDS011;12030;50.376;8.762;2023-09-12T10:16:17;23.00;;;20.93;;
23702;SDS011;12030;50.376;8.762;2023-09-12T10:18:46;22.73;;;20.43;;
23702;SDS011;12030;50.376;8.762;2023-09-12T10:21:21;21.80;;;19.80;;
23702;SDS011;12030;50.376;8.762;2023-09-12T10:23:54;22.07;;;20.27;;
23702;SDS011;12030;50.376;8.762;2023-09-12T10:26:22;23.30;;;21.53;;
23702;SDS011;12030;50.376;8.762;2023-09-12T10:28:49;20.03;;;18.33;;
23702;SDS011;12030;50.376;8.762;2023-09-12T10:31:16;20.27;;;18.70;;
23702;SDS011;12030;50.376;8.762;2023-09-12T10:33:43;23.37;;;20.90;;
23702;SDS011;12030;50.376;8.762;2023-09-12T10:36:11;24.20;;;22.07;;
23702;SDS011;12030;50.376;8.762;2023-09-12T10:38:40;20.80;;;18.80;;
23702;SDS011;12030;50.376;8.762;2023-09-12T10:41:11;22.43;;;20.50;;
23702;SDS011;12030;50.376;8.762;2023-09-12T10:43:39;23.80;;;21.90;;
23702;SDS011;12030;50.376;8.762;2023-09-12T10:46:06;21.67;;;20.07;;
23702;SDS011;12030;50.376;8.762;2023-09-12T10:48:32;20.90;;;19.13;;
23702;SDS011;12030;50.376;8.762;2023-09-12T10:50:59;19.07;;;17.40;;
23702;SDS011;12030;50.376;8.762;2023-09-12T10:53:26;23.00;;;21.13;;
23702;SDS011;12030;50.376;8.762;2023-09-12T10:55:58;21.73;;;19.93;;
23702;SDS011;12030;50.376;8.762;2023-09-12T10:58:25;21.03;;;19.17;;
23702;SDS011;12030;50.376;8.762;2023-09-12T11:03:52;22.20;;;20.37;;
23702;SDS011;12030;50.376;8.762;2023-09-12T11:06:23;19.97;;;18.37;;
23702;SDS011;12030;50.376;8.762;2023-09-12T11:11:57;22.47;;;20.43;;
23702;SDS011;12030;50.376;8.762;2023-09-12T11:14:30;20.23;;;18.43;;
23702;SDS011;12030;50.376;8.762;2023-09-12T11:17:12;21.33;;;19.70;;
23702;SDS011;12030;50.376;8.762;2023-09-12T11:19:52;22.87;;;21.07;;
23702;SDS011;12030;50.376;8.762;2023-09-12T11:24:51;20.33;;;18.97;;
23702;SDS011;12030;50.376;8.762;2023-09-12T11:27:16;23.00;;;20.97;;
23702;SDS011;12030;50.376;8.762;2023-09-12T11:29:42;23.40;;;21.20;;
23702;SDS011;12030;50.376;8.762;2023-09-12T11:32:08;21.80;;;19.73;;
23702;SDS011;12030;50.376;8.762;2023-09-12T11:34:38;25.07;;;22.90;;
23702;SDS011;12030;50.376;8.762;2023-09-12T11:37:07;21.83;;;20.13;;
23702;SDS011;12030;50.376;8.762;2023-09-12T11:39:34;23.00;;;20.67;;
23702;SDS011;12030;50.376;8.762;2023-09-12T11:42:04;20.70;;;18.83;;
23702;SDS011;12030;50.376;8.762;2023-09-12T11:44:35;19.57;;;17.97;;
23702;SDS011;12030;50.376;8.762;2023-09-12T11:47:01;19.57;;;17.57;;
23702;SDS011;12030;50.376;8.762;2023-09-12T11:49:37;16.13;;;14.77;;
23702;SDS011;12030;50.376;8.762;2023-09-12T11:52:14;15.50;;;14.10;;
23702;SDS011;12030;50.376;8.762;2023-09-12T11:54:44;23.43;;;15.57;;
23702;SDS011;12030;50.376;8.762;2023-09-12T11:57:11;16.33;;;14.37;;
23702;SDS011;12030;50.376;8.762;2023-09-12T11:59:39;18.03;;;16.40;;
23702;SDS011;12030;50.376;8.762;2023-09-12T12:02:06;18.53;;;14.23;;
23702;SDS011;12030;50.376;8.762;2023-09-12T12:04:33;16.43;;;14.00;;
23702;SDS011;12030;50.376;8.762;2023-09-12T12:06:59;18.83;;;17.17;;
23702;SDS011;12030;50.376;8.762;2023-09-12T12:09:26;17.00;;;15.07;;
23702;SDS011;12030;50.376;8.762;2023-09-12T12:11:52;17.80;;;15.87;;
23702;SDS011;12030;50.376;8.762;2023-09-12T12:14:18;17.27;;;15.77;;
23702;SDS011;12030;50.376;8.762;2023-09-12T12:16:45;17.27;;;15.60;;
23702;SDS011;12030;50.376;8.762;2023-09-12T12:19:11;18.23;;;15.83;;
23702;SDS011;12030;50.376;8.762;2023-09-12T12:21:41;17.40;;;14.73;;
23702;SDS011;12030;50.376;8.762;2023-09-12T12:24:10;19.93;;;18.47;;
23702;SDS011;12030;50.376;8.762;2023-09-12T12:26:37;16.00;;;14.47;;
23702;SDS011;12030;50.376;8.762;2023-09-12T12:29:05;17.70;;;16.33;;
23702;SDS011;12030;50.376;8.762;2023-09-12T12:31:30;17.57;;;16.07;;
23702;SDS011;12030;50.376;8.762;2023-09-12T12:33:56;19.17;;;17.33;;
23702;SDS011;12030;50.376;8.762;2023-09-12T12:36:22;19.03;;;17.40;;
23702;SDS011;12030;50.376;8.762;2023-09-12T12:38:49;16.83;;;15.20;;
23702;SDS011;12030;50.376;8.762;2023-09-12T12:41:15;17.83;;;16.13;;
23702;SDS011;12030;50.376;8.762;2023-09-12T12:43:51;21.17;;;19.07;;
23702;SDS011;12030;50.376;8.762;2023-09-12T12:46:18;19.43;;;17.67;;
23702;SDS011;12030;50.376;8.762;2023-09-12T12:48:46;19.23;;;17.50;;
23702;SDS011;12030;50.376;8.762;2023-09-12T12:51:17;22.30;;;20.30;;
23702;SDS011;12030;50.376;8.762;2023-09-12T12:53:48;20.07;;;18.43;;
23702;SDS011;12030;50.376;8.762;2023-09-12T12:56:20;19.07;;;16.77;;
23702;SDS011;12030;50.376;8.762;2023-09-12T12:58:51;19.37;;;16.57;;
23702;SDS011;12030;50.376;8.762;2023-09-12T13:01:19;19.77;;;17.83;;
23702;SDS011;12030;50.376;8.762;2023-09-12T13:03:45;18.90;;;17.23;;
23702;SDS011;12030;50.376;8.762;2023-09-12T13:06:11;18.07;;;16.60;;
23702;SDS011;12030;50.376;8.762;2023-09-12T13:08:41;19.13;;;17.67;;
23702;SDS011;12030;50.376;8.762;2023-09-12T13:11:10;16.17;;;14.83;;
23702;SDS011;12030;50.376;8.762;2023-09-12T13:13:36;17.63;;;16.00;;
23702;SDS011;12030;50.376;8.762;2023-09-12T13:16:03;20.97;;;19.17;;
23702;SDS011;12030;50.376;8.762;2023-09-12T13:18:30;16.87;;;15.43;;
23702;SDS011;12030;50.376;8.762;2023-09-12T13:20:57;18.47;;;16.97;;
23702;SDS011;12030;50.376;8.762;2023-09-12T13:23:22;17.73;;;16.30;;
23702;SDS011;12030;50.376;8.762;2023-09-12T13:25:49;20.17;;;18.23;;
23702;SDS011;12030;50.376;8.762;2023-09-12T13:28:15;16.47;;;14.93;;
23702;SDS011;12030;50.376;8.762;2023-09-12T13:30:41;18.73;;;17.43;;
23702;SDS011;12030;50.376;8.762;2023-09-12T13:33:07;16.60;;;15.13;;
23702;SDS011;12030;50.376;8.762;2023-09-12T13:35:33;19.73;;;18.07;;
23702;SDS011;12030;50.376;8.762;2023-09-12T13:37:58;17.93;;;16.13;;
23702;SDS011;12030;50.376;8.762;2023-09-12T13:40:24;16.83;;;14.63;;
23702;SDS011;12030;50.376;8.762;2023-09-12T13:42:49;18.00;;;16.47;;
23702;SDS011;12030;50.376;8.762;2023-09-12T13:45:15;17.73;;;16.27;;
23702;SDS011;12030;50.376;8.762;2023-09-12T13:47:40;19.90;;;18.30;;
23702;SDS011;12030;50.376;8.762;2023-09-12T13:50:07;19.03;;;16.93;;
23702;SDS011;12030;50.376;8.762;2023-09-12T13:52:33;21.40;;;19.53;;
23702;SDS011;12030;50.376;8.762;2023-09-12T13:54:59;21.27;;;17.60;;
23702;SDS011;12030;50.376;8.762;2023-09-12T13:57:28;18.17;;;16.47;;
23702;SDS011;12030;50.376;8.762;2023-09-12T13:59:54;18.30;;;16.60;;
23702;SDS011;12030;50.376;8.762;2023-09-12T14:02:19;19.20;;;17.40;;
23702;SDS011;12030;50.376;8.762;2023-09-12T14:04:45;16.30;;;14.70;;
23702;SDS011;12030;50.376;8.762;2023-09-12T14:07:11;20.80;;;18.83;;
23702;SDS011;12030;50.376;8.762;2023-09-12T14:09:36;17.97;;;16.40;;
23702;SDS011;12030;50.376;8.762;2023-09-12T14:12:02;19.60;;;17.80;;
23702;SDS011;12030;50.376;8.762;2023-09-12T14:14:28;18.47;;;17.13;;
23702;SDS011;12030;50.376;8.762;2023-09-12T14:16:53;19.73;;;17.93;;
23702;SDS011;12030;50.376;8.762;2023-09-12T14:19:19;19.73;;;17.80;;
23702;SDS011;12030;50.376;8.762;2023-09-12T14:21:44;18.63;;;16.93;;
23702;SDS011;12030;50.376;8.762;2023-09-12T14:24:10;20.17;;;18.47;;
23702;SDS011;12030;50.376;8.762;2023-09-12T14:26:35;21.07;;;19.03;;
23702;SDS011;12030;50.376;8.762;2023-09-12T14:29:01;17.83;;;14.27;;
23702;SDS011;12030;50.376;8.762;2023-09-12T14:31:27;17.00;;;15.37;;